sensor_id;sensor_type;location;lat;lon;timestamp;P1;durP1;ratioP1;P2;durP2;ratioP2
22539;SDS011;11436;50.860;4.334;2022-12-07T00:01:08;22.55;;;13.13;;
22539;SDS011;11436;50.860;4.334;2022-12-07T00:03:39;24.35;;;13.18;;
22539;SDS011;11436;50.860;4.334;2022-12-07T00:06:08;19.65;;;12.68;;
22539;SDS011;11436;50.860;4.334;2022-12-07T00:08:35;25.95;;;14.70;;
22539;SDS011;11436;50.860;4.334;2022-12-07T00:11:05;23.67;;;15.00;;
22539;SDS011;11436;50.860;4.334;2022-12-07T00:13:35;23.50;;;14.15;;
22539;SDS011;11436;50.860;4.334;2022-12-07T00:16:02;28.85;;;16.02;;
22539;SDS011;11436;50.860;4.334;2022-12-07T00:18:31;28.63;;;14.65;;
22539;SDS011;11436;50.860;4.334;2022-12-07T00:20:59;31.25;;;15.15;;
22539;SDS011;11436;50.860;4.334;2022-12-07T00:23:28;25.40;;;14.43;;
22539;SDS011;11436;50.860;4.334;2022-12-07T00:25:54;30.45;;;15.73;;
22539;SDS011;11436;50.860;4.334;2022-12-07T00:28:20;22.95;;;14.35;;
22539;SDS011;11436;50.860;4.334;2022-12-07T00:30:46;24.85;;;15.50;;
22539;SDS011;11436;50.860;4.334;2022-12-07T00:33:11;25.60;;;14.23;;
22539;SDS011;11436;50.860;4.334;2022-12-07T00:35:37;26.50;;;14.82;;
22539;SDS011;11436;50.860;4.334;2022-12-07T00:38:03;23.92;;;15.80;;
22539;SDS011;11436;50.860;4.334;2022-12-07T00:40:29;24.95;;;15.98;;
22539;SDS011;11436;50.860;4.334;2022-12-07T00:42:54;24.27;;;16.70;;
22539;SDS011;11436;50.860;4.334;2022-12-07T00:45:20;21.90;;;15.65;;
22539;SDS011;11436;50.860;4.334;2022-12-07T00:47:46;30.02;;;16.52;;
22539;SDS011;11436;50.860;4.334;2022-12-07T00:50:12;28.88;;;17.10;;
22539;SDS011;11436;50.860;4.334;2022-12-07T00:52:37;26.92;;;16.90;;
22539;SDS011;11436;50.860;4.334;2022-12-07T00:55:03;28.67;;;16.52;;
22539;SDS011;11436;50.860;4.334;2022-12-07T00:57:30;28.00;;;17.73;;
22539;SDS011;11436;50.860;4.334;2022-12-07T00:59:55;26.02;;;17.45;;
22539;SDS011;11436;50.860;4.334;2022-12-07T01:02:22;28.73;;;17.92;;
22539;SDS011;11436;50.860;4.334;2022-12-07T01:04:48;30.05;;;18.40;;
22539;SDS011;11436;50.860;4.334;2022-12-07T01:07:14;29.92;;;18.30;;
22539;SDS011;11436;50.860;4.334;2022-12-07T01:09:40;27.40;;;18.77;;
22539;SDS011;11436;50.860;4.334;2022-12-07T01:12:05;29.70;;;18.23;;
22539;SDS011;11436;50.860;4.334;2022-12-07T01:14:31;27.13;;;17.27;;
22539;SDS011;11436;50.860;4.334;2022-12-07T01:16:57;27.70;;;18.35;;
22539;SDS011;11436;50.860;4.334;2022-12-07T01:19:22;28.90;;;18.13;;
22539;SDS011;11436;50.860;4.334;2022-12-07T01:21:48;33.15;;;20.30;;
22539;SDS011;11436;50.860;4.334;2022-12-07T01:24:14;27.48;;;19.52;;
22539;SDS011;11436;50.860;4.334;2022-12-07T01:26:40;33.60;;;21.20;;
22539;SDS011;11436;50.860;4.334;2022-12-07T01:29:06;34.42;;;18.60;;
22539;SDS011;11436;50.860;4.334;2022-12-07T01:31:31;34.17;;;20.50;;
22539;SDS011;11436;50.860;4.334;2022-12-07T01:33:58;27.50;;;17.40;;
22539;SDS011;11436;50.860;4.334;2022-12-07T01:36:25;34.20;;;18.67;;
22539;SDS011;11436;50.860;4.334;2022-12-07T01:39:00;27.23;;;17.58;;
22539;SDS011;11436;50.860;4.334;2022-12-07T01:41:28;24.45;;;17.98;;
22539;SDS011;11436;50.860;4.334;2022-12-07T01:46:46;25.25;;;18.25;;
22539;SDS011;11436;50.860;4.334;2022-12-07T01:52:26;28.30;;;19.50;;
22539;SDS011;11436;50.860;4.334;2022-12-07T01:55:06;28.00;;;18.58;;
22539;SDS011;11436;50.860;4.334;2022-12-07T01:57:36;36.85;;;19.08;;
22539;SDS011;11436;50.860;4.334;2022-12-07T02:02:35;29.33;;;17.77;;
22539;SDS011;11436;50.860;4.334;2022-12-07T02:05:03;28.02;;;17.85;;
22539;SDS011;11436;50.860;4.334;2022-12-07T02:07:31;29.88;;;19.85;;
22539;SDS011;11436;50.860;4.334;2022-12-07T02:10:14;32.00;;;18.13;;
22539;SDS011;11436;50.860;4.334;2022-12-07T02:12:49;31.15;;;19.15;;
22539;SDS011;11436;50.860;4.334;2022-12-07T02:15:20;25.98;;;18.48;;
22539;SDS011;11436;50.860;4.334;2022-12-07T02:20:37;30.20;;;19.23;;
22539;SDS011;11436;50.860;4.334;2022-12-07T02:23:35;32.78;;;18.25;;
22539;SDS011;11436;50.860;4.334;2022-12-07T02:31:55;26.10;;;18.80;;
22539;SDS011;11436;50.860;4.334;2022-12-07T02:42:55;23.92;;;16.70;;
22539;SDS011;11436;50.860;4.334;2022-12-07T02:45:27;27.85;;;19.23;;
22539;SDS011;11436;50.860;4.334;2022-12-07T02:47:56;27.67;;;18.50;;
22539;SDS011;11436;50.860;4.334;2022-12-07T02:50:24;31.95;;;18.48;;
22539;SDS011;11436;50.860;4.334;2022-12-07T02:52:51;29.35;;;18.23;;
22539;SDS011;11436;50.860;4.334;2022-12-07T02:55:17;28.65;;;18.17;;
22539;SDS011;11436;50.860;4.334;2022-12-07T02:58:05;30.65;;;17.85;;
22539;SDS011;11436;50.860;4.334;2022-12-07T03:03:46;29.25;;;20.10;;
22539;SDS011;11436;50.860;4.334;2022-12-07T03:06:23;30.80;;;19.30;;
22539;SDS011;11436;50.860;4.334;2022-12-07T03:09:18;31.70;;;19.10;;
22539;SDS011;11436;50.860;4.334;2022-12-07T03:11:55;28.63;;;19.05;;
22539;SDS011;11436;50.860;4.334;2022-12-07T03:14:41;29.23;;;19.17;;
22539;SDS011;11436;50.860;4.334;2022-12-07T03:17:18;31.90;;;20.30;;
22539;SDS011;11436;50.860;4.334;2022-12-07T03:19:49;27.08;;;19.52;;
22539;SDS011;11436;50.860;4.334;2022-12-07T03:22:18;29.92;;;19.92;;
22539;SDS011;11436;50.860;4.334;2022-12-07T03:24:55;27.15;;;20.13;;
22539;SDS011;11436;50.860;4.334;2022-12-07T03:27:24;26.83;;;19.27;;
22539;SDS011;11436;50.860;4.334;2022-12-07T03:30:02;29.63;;;20.40;;
22539;SDS011;11436;50.860;4.334;2022-12-07T03:35:18;26.88;;;19.08;;
22539;SDS011;11436;50.860;4.334;2022-12-07T03:37:54;29.20;;;18.38;;
22539;SDS011;11436;50.860;4.334;2022-12-07T03:40:40;27.63;;;18.00;;
22539;SDS011;11436;50.860;4.334;2022-12-07T03:43:17;26.90;;;18.27;;
22539;SDS011;11436;50.860;4.334;2022-12-07T03:45:44;25.80;;;17.63;;
22539;SDS011;11436;50.860;4.334;2022-12-07T03:48:32;27.77;;;17.38;;
22539;SDS011;11436;50.860;4.334;2022-12-07T03:51:21;27.10;;;17.52;;
22539;SDS011;11436;50.860;4.334;2022-12-07T03:54:13;27.77;;;17.73;;
22539;SDS011;11436;50.860;4.334;2022-12-07T03:57:08;25.48;;;17.20;;
22539;SDS011;11436;50.860;4.334;2022-12-07T03:59:39;24.27;;;17.30;;
22539;SDS011;11436;50.860;4.334;2022-12-07T04:02:09;24.27;;;17.17;;
22539;SDS011;11436;50.860;4.334;2022-12-07T04:04:37;27.15;;;17.63;;
22539;SDS011;11436;50.860;4.334;2022-12-07T04:07:04;34.20;;;19.38;;
22539;SDS011;11436;50.860;4.334;2022-12-07T04:09:30;25.10;;;18.55;;
22539;SDS011;11436;50.860;4.334;2022-12-07T04:11:56;30.00;;;19.27;;
22539;SDS011;11436;50.860;4.334;2022-12-07T04:14:21;24.75;;;18.35;;
22539;SDS011;11436;50.860;4.334;2022-12-07T04:16:51;26.50;;;18.40;;
22539;SDS011;11436;50.860;4.334;2022-12-07T04:19:22;27.55;;;17.55;;
22539;SDS011;11436;50.860;4.334;2022-12-07T04:21:49;32.47;;;18.45;;
22539;SDS011;11436;50.860;4.334;2022-12-07T04:24:15;25.17;;;16.95;;
22539;SDS011;11436;50.860;4.334;2022-12-07T04:26:42;28.58;;;17.63;;
22539;SDS011;11436;50.860;4.334;2022-12-07T04:29:09;27.70;;;17.77;;
22539;SDS011;11436;50.860;4.334;2022-12-07T04:31:35;29.80;;;17.77;;
22539;SDS011;11436;50.860;4.334;2022-12-07T04:34:02;30.30;;;19.85;;
22539;SDS011;11436;50.860;4.334;2022-12-07T04:36:28;29.88;;;19.48;;
22539;SDS011;11436;50.860;4.334;2022-12-07T04:38:54;28.95;;;19.02;;
22539;SDS011;11436;50.860;4.334;2022-12-07T04:41:21;33.38;;;19.10;;
22539;SDS011;11436;50.860;4.334;2022-12-07T04:43:54;28.05;;;18.10;;
22539;SDS011;11436;50.860;4.334;2022-12-07T04:46:21;32.00;;;19.13;;
22539;SDS011;11436;50.860;4.334;2022-12-07T04:48:48;35.35;;;19.33;;
22539;SDS011;11436;50.860;4.334;2022-12-07T04:51:16;30.95;;;19.67;;
22539;SDS011;11436;50.860;4.334;2022-12-07T04:53:45;32.10;;;18.90;;
22539;SDS011;11436;50.860;4.334;2022-12-07T04:56:11;31.77;;;19.00;;
22539;SDS011;11436;50.860;4.334;2022-12-07T04:58:36;26.90;;;17.05;;
22539;SDS011;11436;50.860;4.334;2022-12-07T05:01:02;26.45;;;17.23;;
22539;SDS011;11436;50.860;4.334;2022-12-07T05:03:28;27.88;;;17.85;;
22539;SDS011;11436;50.860;4.334;2022-12-07T05:05:54;29.13;;;17.38;;
22539;SDS011;11436;50.860;4.334;2022-12-07T05:08:19;32.05;;;17.65;;
22539;SDS011;11436;50.860;4.334;2022-12-07T05:10:45;33.10;;;19.15;;
22539;SDS011;11436;50.860;4.334;2022-12-07T05:13:13;27.85;;;17.67;;
22539;SDS011;11436;50.860;4.334;2022-12-07T05:15:39;26.83;;;17.33;;
22539;SDS011;11436;50.860;4.334;2022-12-07T05:18:05;27.15;;;17.80;;
22539;SDS011;11436;50.860;4.334;2022-12-07T05:20:31;30.55;;;18.35;;
22539;SDS011;11436;50.860;4.334;2022-12-07T05:22:57;31.17;;;18.73;;
22539;SDS011;11436;50.860;4.334;2022-12-07T05:25:23;30.13;;;19.33;;
22539;SDS011;11436;50.860;4.334;2022-12-07T05:27:49;27.58;;;19.60;;
22539;SDS011;11436;50.860;4.334;2022-12-07T05:30:15;31.23;;;18.95;;
22539;SDS011;11436;50.860;4.334;2022-12-07T05:32:40;26.85;;;19.33;;
22539;SDS011;11436;50.860;4.334;2022-12-07T05:35:07;27.38;;;18.20;;
22539;SDS011;11436;50.860;4.334;2022-12-07T05:37:33;34.75;;;19.25;;
22539;SDS011;11436;50.860;4.334;2022-12-07T05:39:58;25.70;;;17.70;;
22539;SDS011;11436;50.860;4.334;2022-12-07T05:42:24;28.35;;;17.80;;
22539;SDS011;11436;50.860;4.334;2022-12-07T05:44:50;29.13;;;17.65;;
22539;SDS011;11436;50.860;4.334;2022-12-07T05:47:16;27.85;;;18.23;;
22539;SDS011;11436;50.860;4.334;2022-12-07T05:49:42;35.53;;;18.88;;
22539;SDS011;11436;50.860;4.334;2022-12-07T05:52:07;30.50;;;18.70;;
22539;SDS011;11436;50.860;4.334;2022-12-07T05:54:33;26.73;;;17.30;;
22539;SDS011;11436;50.860;4.334;2022-12-07T05:56:59;26.95;;;17.23;;
22539;SDS011;11436;50.860;4.334;2022-12-07T05:59:25;22.60;;;16.45;;
22539;SDS011;11436;50.860;4.334;2022-12-07T06:02:00;22.20;;;16.73;;
22539;SDS011;11436;50.860;4.334;2022-12-07T06:04:31;27.23;;;18.10;;
22539;SDS011;11436;50.860;4.334;2022-12-07T06:06:59;27.33;;;18.08;;
22539;SDS011;11436;50.860;4.334;2022-12-07T06:09:26;27.23;;;17.58;;
22539;SDS011;11436;50.860;4.334;2022-12-07T06:11:53;23.25;;;17.58;;
22539;SDS011;11436;50.860;4.334;2022-12-07T06:14:37;28.90;;;17.85;;
22539;SDS011;11436;50.860;4.334;2022-12-07T06:17:03;28.50;;;17.73;;
22539;SDS011;11436;50.860;4.334;2022-12-07T06:19:29;29.05;;;17.10;;
22539;SDS011;11436;50.860;4.334;2022-12-07T06:21:55;27.80;;;18.02;;
22539;SDS011;11436;50.860;4.334;2022-12-07T06:24:22;29.42;;;17.83;;
22539;SDS011;11436;50.860;4.334;2022-12-07T06:26:48;32.00;;;19.90;;
22539;SDS011;11436;50.860;4.334;2022-12-07T06:29:14;28.73;;;18.20;;
22539;SDS011;11436;50.860;4.334;2022-12-07T06:31:40;27.17;;;19.95;;
22539;SDS011;11436;50.860;4.334;2022-12-07T06:34:08;29.52;;;19.05;;
22539;SDS011;11436;50.860;4.334;2022-12-07T06:36:36;29.13;;;17.85;;
22539;SDS011;11436;50.860;4.334;2022-12-07T06:39:02;27.27;;;19.15;;
22539;SDS011;11436;50.860;4.334;2022-12-07T06:41:28;27.27;;;19.95;;
22539;SDS011;11436;50.860;4.334;2022-12-07T06:43:54;32.80;;;19.23;;
22539;SDS011;11436;50.860;4.334;2022-12-07T06:46:20;29.77;;;18.48;;
22539;SDS011;11436;50.860;4.334;2022-12-07T06:48:46;32.30;;;17.58;;
22539;SDS011;11436;50.860;4.334;2022-12-07T06:51:12;36.35;;;18.50;;
22539;SDS011;11436;50.860;4.334;2022-12-07T06:53:38;31.05;;;19.17;;
22539;SDS011;11436;50.860;4.334;2022-12-07T06:56:04;31.80;;;19.98;;
22539;SDS011;11436;50.860;4.334;2022-12-07T06:58:30;28.08;;;18.40;;
22539;SDS011;11436;50.860;4.334;2022-12-07T07:00:56;31.48;;;18.98;;
22539;SDS011;11436;50.860;4.334;2022-12-07T07:03:23;28.48;;;19.35;;
22539;SDS011;11436;50.860;4.334;2022-12-07T07:05:49;28.67;;;18.73;;
22539;SDS011;11436;50.860;4.334;2022-12-07T07:08:15;29.25;;;18.75;;
22539;SDS011;11436;50.860;4.334;2022-12-07T07:10:41;37.45;;;20.48;;
22539;SDS011;11436;50.860;4.334;2022-12-07T07:13:07;30.23;;;19.45;;
22539;SDS011;11436;50.860;4.334;2022-12-07T07:15:33;31.60;;;20.10;;
22539;SDS011;11436;50.860;4.334;2022-12-07T07:17:59;30.98;;;20.90;;
22539;SDS011;11436;50.860;4.334;2022-12-07T07:20:26;30.42;;;19.77;;
22539;SDS011;11436;50.860;4.334;2022-12-07T07:22:55;27.63;;;18.35;;
22539;SDS011;11436;50.860;4.334;2022-12-07T07:25:21;28.70;;;18.40;;
22539;SDS011;11436;50.860;4.334;2022-12-07T07:27:47;34.00;;;18.80;;
22539;SDS011;11436;50.860;4.334;2022-12-07T07:30:13;35.40;;;19.88;;
22539;SDS011;11436;50.860;4.334;2022-12-07T07:32:39;26.42;;;17.90;;
22539;SDS011;11436;50.860;4.334;2022-12-07T07:35:05;26.33;;;17.98;;
22539;SDS011;11436;50.860;4.334;2022-12-07T07:37:31;31.63;;;18.55;;
22539;SDS011;11436;50.860;4.334;2022-12-07T07:39:57;29.35;;;17.85;;
22539;SDS011;11436;50.860;4.334;2022-12-07T07:42:22;29.02;;;19.02;;
22539;SDS011;11436;50.860;4.334;2022-12-07T07:44:48;23.55;;;17.17;;
22539;SDS011;11436;50.860;4.334;2022-12-07T07:47:15;26.05;;;17.20;;
22539;SDS011;11436;50.860;4.334;2022-12-07T07:49:41;32.47;;;17.38;;
22539;SDS011;11436;50.860;4.334;2022-12-07T07:52:06;26.38;;;18.25;;
22539;SDS011;11436;50.860;4.334;2022-12-07T07:54:32;26.38;;;17.08;;
22539;SDS011;11436;50.860;4.334;2022-12-07T07:56:58;26.45;;;16.77;;
22539;SDS011;11436;50.860;4.334;2022-12-07T07:59:23;30.15;;;18.45;;
22539;SDS011;11436;50.860;4.334;2022-12-07T08:01:50;24.60;;;16.65;;
22539;SDS011;11436;50.860;4.334;2022-12-07T08:04:15;27.27;;;16.00;;
22539;SDS011;11436;50.860;4.334;2022-12-07T08:06:41;24.50;;;15.52;;
22539;SDS011;11436;50.860;4.334;2022-12-07T08:09:07;26.60;;;16.08;;
22539;SDS011;11436;50.860;4.334;2022-12-07T08:11:33;25.73;;;16.05;;
22539;SDS011;11436;50.860;4.334;2022-12-07T08:14:01;27.10;;;15.68;;
22539;SDS011;11436;50.860;4.334;2022-12-07T08:16:27;25.27;;;17.63;;
22539;SDS011;11436;50.860;4.334;2022-12-07T08:18:53;27.98;;;18.05;;
22539;SDS011;11436;50.860;4.334;2022-12-07T08:21:19;29.58;;;17.73;;
22539;SDS011;11436;50.860;4.334;2022-12-07T08:23:45;47.05;;;18.75;;
22539;SDS011;11436;50.860;4.334;2022-12-07T08:26:11;34.20;;;18.38;;
22539;SDS011;11436;50.860;4.334;2022-12-07T08:28:38;36.05;;;21.20;;
22539;SDS011;11436;50.860;4.334;2022-12-07T08:31:11;38.45;;;20.02;;
22539;SDS011;11436;50.860;4.334;2022-12-07T08:33:39;31.33;;;19.38;;
22539;SDS011;11436;50.860;4.334;2022-12-07T08:36:09;25.92;;;17.88;;
22539;SDS011;11436;50.860;4.334;2022-12-07T08:38:37;35.20;;;19.33;;
22539;SDS011;11436;50.860;4.334;2022-12-07T08:41:05;28.77;;;18.73;;
22539;SDS011;11436;50.860;4.334;2022-12-07T08:43:32;29.52;;;18.27;;
22539;SDS011;11436;50.860;4.334;2022-12-07T08:48:53;25.55;;;17.00;;
22539;SDS011;11436;50.860;4.334;2022-12-07T08:51:23;23.63;;;16.58;;
22539;SDS011;11436;50.860;4.334;2022-12-07T08:53:50;30.80;;;16.63;;
22539;SDS011;11436;50.860;4.334;2022-12-07T08:56:17;24.08;;;14.15;;
22539;SDS011;11436;50.860;4.334;2022-12-07T08:58:43;22.90;;;14.15;;
22539;SDS011;11436;50.860;4.334;2022-12-07T09:01:09;18.15;;;13.20;;
22539;SDS011;11436;50.860;4.334;2022-12-07T09:03:35;26.92;;;14.05;;
22539;SDS011;11436;50.860;4.334;2022-12-07T09:06:01;25.35;;;15.00;;
22539;SDS011;11436;50.860;4.334;2022-12-07T09:08:31;25.65;;;13.80;;
22539;SDS011;11436;50.860;4.334;2022-12-07T09:11:01;22.45;;;13.73;;
22539;SDS011;11436;50.860;4.334;2022-12-07T09:13:27;20.48;;;13.10;;
22539;SDS011;11436;50.860;4.334;2022-12-07T09:15:52;28.13;;;13.27;;
22539;SDS011;11436;50.860;4.334;2022-12-07T09:18:18;19.80;;;11.40;;
22539;SDS011;11436;50.860;4.334;2022-12-07T09:20:44;24.63;;;11.63;;
22539;SDS011;11436;50.860;4.334;2022-12-07T09:23:10;19.52;;;11.50;;
22539;SDS011;11436;50.860;4.334;2022-12-07T09:25:36;16.40;;;11.27;;
22539;SDS011;11436;50.860;4.334;2022-12-07T09:28:02;19.88;;;11.73;;
22539;SDS011;11436;50.860;4.334;2022-12-07T09:30:27;19.77;;;10.80;;
22539;SDS011;11436;50.860;4.334;2022-12-07T09:32:54;15.43;;;10.40;;
22539;SDS011;11436;50.860;4.334;2022-12-07T09:35:20;21.30;;;10.48;;
22539;SDS011;11436;50.860;4.334;2022-12-07T09:37:46;16.77;;;9.57;;
22539;SDS011;11436;50.860;4.334;2022-12-07T09:40:14;18.88;;;9.35;;
22539;SDS011;11436;50.860;4.334;2022-12-07T09:42:41;15.25;;;9.57;;
22539;SDS011;11436;50.860;4.334;2022-12-07T09:45:14;18.85;;;9.98;;
22539;SDS011;11436;50.860;4.334;2022-12-07T09:47:45;20.15;;;11.93;;
22539;SDS011;11436;50.860;4.334;2022-12-07T09:50:21;18.90;;;9.23;;
22539;SDS011;11436;50.860;4.334;2022-12-07T09:52:50;21.55;;;9.40;;
22539;SDS011;11436;50.860;4.334;2022-12-07T09:55:19;19.42;;;9.18;;
22539;SDS011;11436;50.860;4.334;2022-12-07T09:57:53;18.67;;;9.43;;
22539;SDS011;11436;50.860;4.334;2022-12-07T10:00:20;18.48;;;9.18;;
22539;SDS011;11436;50.860;4.334;2022-12-07T10:02:50;13.07;;;8.32;;
22539;SDS011;11436;50.860;4.334;2022-12-07T10:05:24;14.23;;;8.27;;
22539;SDS011;11436;50.860;4.334;2022-12-07T10:07:51;15.52;;;9.55;;
22539;SDS011;11436;50.860;4.334;2022-12-07T10:10:19;14.32;;;7.82;;
22539;SDS011;11436;50.860;4.334;2022-12-07T10:13:02;13.95;;;7.90;;
22539;SDS011;11436;50.860;4.334;2022-12-07T10:18:26;17.45;;;7.75;;
22539;SDS011;11436;50.860;4.334;2022-12-07T10:23:38;12.85;;;7.65;;
22539;SDS011;11436;50.860;4.334;2022-12-07T10:26:37;20.08;;;7.85;;
22539;SDS011;11436;50.860;4.334;2022-12-07T10:32:00;15.60;;;7.65;;
22539;SDS011;11436;50.860;4.334;2022-12-07T10:44:45;17.90;;;7.60;;
22539;SDS011;11436;50.860;4.334;2022-12-07T10:50:39;11.70;;;5.95;;
22539;SDS011;11436;50.860;4.334;2022-12-07T11:02:09;10.80;;;4.57;;
22539;SDS011;11436;50.860;4.334;2022-12-07T11:28:42;11.18;;;5.15;;
22539;SDS011;11436;50.860;4.334;2022-12-07T11:34:07;12.30;;;5.40;;
22539;SDS011;11436;50.860;4.334;2022-12-07T11:36:44;13.90;;;5.80;;
22539;SDS011;11436;50.860;4.334;2022-12-07T11:41:50;14.65;;;5.82;;
22539;SDS011;11436;50.860;4.334;2022-12-07T11:44:33;7.75;;;4.97;;
22539;SDS011;11436;50.860;4.334;2022-12-07T11:47:07;10.77;;;5.07;;
22539;SDS011;11436;50.860;4.334;2022-12-07T11:50:01;10.40;;;4.28;;
22539;SDS011;11436;50.860;4.334;2022-12-07T11:55:26;9.43;;;4.40;;
22539;SDS011;11436;50.860;4.334;2022-12-07T11:57:56;13.85;;;3.65;;
22539;SDS011;11436;50.860;4.334;2022-12-07T12:00:29;7.28;;;2.95;;
22539;SDS011;11436;50.860;4.334;2022-12-07T12:05:26;8.00;;;3.13;;
22539;SDS011;11436;50.860;4.334;2022-12-07T12:08:01;4.82;;;2.67;;
22539;SDS011;11436;50.860;4.334;2022-12-07T12:21:48;6.68;;;2.75;;
22539;SDS011;11436;50.860;4.334;2022-12-07T12:24:16;6.70;;;2.75;;
22539;SDS011;11436;50.860;4.334;2022-12-07T12:26:51;6.55;;;2.28;;
22539;SDS011;11436;50.860;4.334;2022-12-07T12:32:21;4.60;;;1.73;;
22539;SDS011;11436;50.860;4.334;2022-12-07T12:37:52;5.32;;;2.17;;
22539;SDS011;11436;50.860;4.334;2022-12-07T12:42:53;4.18;;;1.92;;
22539;SDS011;11436;50.860;4.334;2022-12-07T12:45:22;6.72;;;2.17;;
22539;SDS011;11436;50.860;4.334;2022-12-07T12:50:36;8.55;;;2.58;;
22539;SDS011;11436;50.860;4.334;2022-12-07T13:00:45;5.93;;;2.22;;
22539;SDS011;11436;50.860;4.334;2022-12-07T13:03:24;5.03;;;2.55;;
22539;SDS011;11436;50.860;4.334;2022-12-07T13:06:16;5.43;;;2.42;;
22539;SDS011;11436;50.860;4.334;2022-12-07T13:08:52;10.23;;;2.60;;
22539;SDS011;11436;50.860;4.334;2022-12-07T13:11:41;7.95;;;2.20;;
22539;SDS011;11436;50.860;4.334;2022-12-07T13:17:09;8.18;;;1.92;;
22539;SDS011;11436;50.860;4.334;2022-12-07T13:27:58;6.15;;;2.40;;
22539;SDS011;11436;50.860;4.334;2022-12-07T13:30:32;9.63;;;2.15;;
22539;SDS011;11436;50.860;4.334;2022-12-07T13:33:08;6.85;;;3.38;;
22539;SDS011;11436;50.860;4.334;2022-12-07T13:35:36;6.72;;;3.58;;
22539;SDS011;11436;50.860;4.334;2022-12-07T13:38:04;11.70;;;2.13;;
22539;SDS011;11436;50.860;4.334;2022-12-07T13:43:49;7.90;;;2.80;;
22539;SDS011;11436;50.860;4.334;2022-12-07T13:49:23;7.85;;;2.38;;
22539;SDS011;11436;50.860;4.334;2022-12-07T13:51:50;4.57;;;1.95;;
22539;SDS011;11436;50.860;4.334;2022-12-07T13:54:20;10.50;;;3.05;;
22539;SDS011;11436;50.860;4.334;2022-12-07T13:56:48;8.25;;;2.00;;
22539;SDS011;11436;50.860;4.334;2022-12-07T13:59:21;8.10;;;3.00;;
22539;SDS011;11436;50.860;4.334;2022-12-07T14:01:52;7.72;;;2.25;;
22539;SDS011;11436;50.860;4.334;2022-12-07T14:06:58;7.30;;;2.00;;
22539;SDS011;11436;50.860;4.334;2022-12-07T14:09:27;4.05;;;2.22;;
22539;SDS011;11436;50.860;4.334;2022-12-07T14:11:54;8.25;;;2.28;;
22539;SDS011;11436;50.860;4.334;2022-12-07T14:14:28;7.30;;;2.30;;
22539;SDS011;11436;50.860;4.334;2022-12-07T14:17:11;7.85;;;2.50;;
22539;SDS011;11436;50.860;4.334;2022-12-07T14:20:00;5.82;;;2.40;;
22539;SDS011;11436;50.860;4.334;2022-12-07T15:47:48;8.88;;;3.70;;
22539;SDS011;11436;50.860;4.334;2022-12-07T15:50:15;8.85;;;3.78;;
22539;SDS011;11436;50.860;4.334;2022-12-07T15:52:41;7.28;;;3.33;;
22539;SDS011;11436;50.860;4.334;2022-12-07T15:55:07;8.10;;;3.58;;
22539;SDS011;11436;50.860;4.334;2022-12-07T15:57:35;6.70;;;3.97;;
22539;SDS011;11436;50.860;4.334;2022-12-07T16:00:03;7.18;;;3.72;;
22539;SDS011;11436;50.860;4.334;2022-12-07T16:02:30;7.35;;;3.38;;
22539;SDS011;11436;50.860;4.334;2022-12-07T16:04:56;9.32;;;4.68;;
22539;SDS011;11436;50.860;4.334;2022-12-07T16:07:22;12.98;;;4.45;;
22539;SDS011;11436;50.860;4.334;2022-12-07T16:09:48;9.38;;;4.45;;
22539;SDS011;11436;50.860;4.334;2022-12-07T16:12:17;7.35;;;4.38;;
22539;SDS011;11436;50.860;4.334;2022-12-07T16:14:43;9.98;;;5.25;;
22539;SDS011;11436;50.860;4.334;2022-12-07T16:17:09;10.27;;;4.97;;
22539;SDS011;11436;50.860;4.334;2022-12-07T16:19:35;15.98;;;5.50;;
22539;SDS011;11436;50.860;4.334;2022-12-07T16:22:02;8.70;;;4.75;;
22539;SDS011;11436;50.860;4.334;2022-12-07T16:24:29;7.90;;;4.22;;
22539;SDS011;11436;50.860;4.334;2022-12-07T16:26:55;7.50;;;3.70;;
22539;SDS011;11436;50.860;4.334;2022-12-07T16:29:22;12.38;;;4.72;;
22539;SDS011;11436;50.860;4.334;2022-12-07T16:31:49;7.95;;;3.90;;
22539;SDS011;11436;50.860;4.334;2022-12-07T16:34:16;11.50;;;4.55;;
22539;SDS011;11436;50.860;4.334;2022-12-07T16:36:43;10.90;;;4.95;;
22539;SDS011;11436;50.860;4.334;2022-12-07T16:39:09;11.05;;;4.78;;
22539;SDS011;11436;50.860;4.334;2022-12-07T16:41:35;10.55;;;5.05;;
22539;SDS011;11436;50.860;4.334;2022-12-07T16:44:05;10.35;;;5.47;;
22539;SDS011;11436;50.860;4.334;2022-12-07T16:46:33;10.30;;;5.00;;
22539;SDS011;11436;50.860;4.334;2022-12-07T16:49:01;8.27;;;4.93;;
22539;SDS011;11436;50.860;4.334;2022-12-07T16:51:27;10.98;;;5.35;;
22539;SDS011;11436;50.860;4.334;2022-12-07T16:53:53;15.73;;;5.53;;
22539;SDS011;11436;50.860;4.334;2022-12-07T16:56:22;13.73;;;5.25;;
22539;SDS011;11436;50.860;4.334;2022-12-07T16:58:49;10.40;;;5.55;;
22539;SDS011;11436;50.860;4.334;2022-12-07T17:01:19;9.35;;;5.32;;
22539;SDS011;11436;50.860;4.334;2022-12-07T17:03:47;12.50;;;6.22;;
22539;SDS011;11436;50.860;4.334;2022-12-07T17:06:17;13.13;;;5.70;;
22539;SDS011;11436;50.860;4.334;2022-12-07T17:08:47;11.65;;;5.07;;
22539;SDS011;11436;50.860;4.334;2022-12-07T17:11:14;12.43;;;5.43;;
22539;SDS011;11436;50.860;4.334;2022-12-07T17:13:45;10.93;;;5.50;;
22539;SDS011;11436;50.860;4.334;2022-12-07T17:16:30;12.10;;;5.60;;
22539;SDS011;11436;50.860;4.334;2022-12-07T17:18:56;10.77;;;5.30;;
22539;SDS011;11436;50.860;4.334;2022-12-07T17:21:23;12.27;;;5.60;;
22539;SDS011;11436;50.860;4.334;2022-12-07T17:23:49;9.82;;;6.00;;
22539;SDS011;11436;50.860;4.334;2022-12-07T17:26:19;14.30;;;6.45;;
22539;SDS011;11436;50.860;4.334;2022-12-07T17:28:47;11.18;;;5.53;;
22539;SDS011;11436;50.860;4.334;2022-12-07T17:31:15;14.60;;;6.70;;
22539;SDS011;11436;50.860;4.334;2022-12-07T17:33:42;10.52;;;6.30;;
22539;SDS011;11436;50.860;4.334;2022-12-07T17:38:42;13.30;;;6.32;;
22539;SDS011;11436;50.860;4.334;2022-12-07T17:41:12;15.45;;;9.20;;
22539;SDS011;11436;50.860;4.334;2022-12-07T17:43:59;13.73;;;6.47;;
22539;SDS011;11436;50.860;4.334;2022-12-07T17:46:26;13.48;;;6.85;;
22539;SDS011;11436;50.860;4.334;2022-12-07T17:48:55;15.38;;;6.78;;
22539;SDS011;11436;50.860;4.334;2022-12-07T17:51:21;12.80;;;6.63;;
22539;SDS011;11436;50.860;4.334;2022-12-07T17:54:06;11.25;;;7.05;;
22539;SDS011;11436;50.860;4.334;2022-12-07T17:56:33;14.73;;;7.45;;
22539;SDS011;11436;50.860;4.334;2022-12-07T17:58:59;14.98;;;7.43;;
22539;SDS011;11436;50.860;4.334;2022-12-07T18:01:25;14.85;;;8.05;;
22539;SDS011;11436;50.860;4.334;2022-12-07T18:03:51;11.80;;;7.10;;
22539;SDS011;11436;50.860;4.334;2022-12-07T18:06:17;14.38;;;7.00;;
22539;SDS011;11436;50.860;4.334;2022-12-07T18:08:44;16.40;;;7.47;;
22539;SDS011;11436;50.860;4.334;2022-12-07T18:11:09;15.50;;;7.53;;
22539;SDS011;11436;50.860;4.334;2022-12-07T18:13:35;12.77;;;7.70;;
22539;SDS011;11436;50.860;4.334;2022-12-07T18:16:06;11.05;;;7.45;;
22539;SDS011;11436;50.860;4.334;2022-12-07T18:18:34;11.50;;;7.50;;
22539;SDS011;11436;50.860;4.334;2022-12-07T18:21:02;11.07;;;8.10;;
22539;SDS011;11436;50.860;4.334;2022-12-07T18:23:29;13.95;;;8.77;;
22539;SDS011;11436;50.860;4.334;2022-12-07T18:25:57;13.15;;;9.93;;
22539;SDS011;11436;50.860;4.334;2022-12-07T18:28:23;13.70;;;9.75;;
22539;SDS011;11436;50.860;4.334;2022-12-07T18:30:49;14.45;;;10.23;;
22539;SDS011;11436;50.860;4.334;2022-12-07T18:33:16;14.52;;;10.88;;
22539;SDS011;11436;50.860;4.334;2022-12-07T18:35:44;16.13;;;11.10;;
22539;SDS011;11436;50.860;4.334;2022-12-07T18:38:12;16.10;;;10.45;;